Terminal Aerodrome Forecast
Issued by NWS

Home | Current Version | Previous Version | Text Only | Print | Product List | Glossary On
Versions: 1 2 3 4 5 6 7 8 9 10 11 12 13 14 15 16 17 18
138
FTUS46 KEKA 241849 AAA
TAFCEC
TAF AMD
KCEC 241849Z 2419/2518 25009KT 5SM -SHRA BR SCT015 BKN025 OVC045
     FM242100 25013KT 2SM -SHRA BR SCT008 OVC025
     FM250100 19008KT 1 1/2SM -SHRA BR BKN010 OVC025
     FM250900 14005KT P6SM SCT015 OVC030
     FM251500 14006KT 4SM -SHRA BR OVC025=

USA.gov is the U.S. government's official web portal to all federal, state and local government web resources and services.